Airfield :
LOGIN :

Register | Disclaimer

   EN    FR    IT 

 










Legend :    VFR   Marginal VFR   IFR   Intensive IFR   Very Intensive IFR
Visi :
Ceiling :
>= 8 km
>= 3000ft
5 to 8 km
1000 to 3000 ft
1500m to 5 km
500 to 1000 ft
800 to 1500m
200 to 500 ft
< 800m
< 200 ft
Symbols :   Thunderstorms  Fog  Heavy snow  Heavy precipitations  Wind > 20 kt
SIGMETs :     Misc.  Thunderstorms  Icing  Turbulence  Mountain Waves  Volcanic Ashes






- Airport Elevation : 22 ft
- IATA code : LDY


EGAE - Londonderry Eglington

CURRENT METAR :
  • 090720Z 20005KT 160V240 9999 FEW013 17/16 Q1029

EXPIRED METARs :
  • 090650Z 22005KT 9999 FEW015 17/15 Q1029
  • 090620Z 21007KT 9999 FEW015 16/15 Q1029
  • 090550Z 22007KT 9999 FEW014 16/15 Q1029
  • 090520Z 20006KT 9999 FEW014 16/14 Q1029

TAF TAF EGAE
Valid from the 09 at 06:00 until the 09 at 15:00 UTC


090527Z 0906/0915 23007KT 9999 FEW018



MET'MAP, your aeronautical weather chart ! - Copyright ORBIFLY December 2007 - Disclaimer

ORBIFLY MET'MAP TEAM :

Programming & Development : Alexandra Zaïnal
Original concept : Baudouin d'Aumeries
Technical & hardware support : Manuel Goepfert
Assistance : Marc-Olivier Méhu




SOURCES & CREDITS :

   NOAA